createdAt,value
2023-03-25T06:02:56.671Z,88.62
2023-03-25T06:05:29.813Z,88.49
2023-03-25T06:08:06.552Z,87.48
2023-03-25T06:10:36.970Z,87.96
2023-03-25T06:13:13.545Z,87.44
2023-03-25T06:15:44.703Z,87.56
2023-03-25T06:18:23.506Z,88.03
2023-03-25T06:21:04.585Z,87.81
2023-03-25T06:23:43.571Z,87.58
2023-03-25T06:26:14.004Z,88.09
2023-03-25T06:28:50.551Z,88.36
2023-03-25T06:31:23.452Z,87.89
2023-03-25T06:34:06.630Z,88.78
2023-03-25T06:36:36.796Z,88.81
2023-03-25T06:39:15.605Z,88.60
2023-03-25T06:41:52.565Z,88.70
2023-03-25T06:44:24.836Z,89.05
2023-03-25T06:47:01.611Z,89.03
2023-03-25T06:49:34.498Z,89.01
2023-03-25T06:52:11.562Z,88.61
2023-03-25T06:54:41.850Z,88.41
2023-03-25T06:57:18.580Z,88.38
2023-03-25T06:59:49.817Z,88.29
2023-03-25T07:02:26.773Z,88.11
2023-03-25T07:05:06.647Z,88.58
2023-03-25T07:07:37.133Z,88.91
2023-03-25T07:10:14.686Z,88.31
2023-03-25T07:12:45.442Z,88.88
2023-03-25T07:15:22.653Z,88.00
2023-03-25T07:17:53.375Z,88.35
2023-03-25T07:20:35.668Z,88.07
2023-03-25T07:23:06.108Z,87.86
2023-03-25T07:25:45.649Z,86.80
2023-03-25T07:28:22.732Z,87.23
2023-03-25T07:30:53.075Z,86.94
2023-03-25T07:33:29.670Z,86.96
2023-03-25T07:36:02.796Z,86.42
2023-03-25T07:38:39.696Z,86.25
2023-03-25T07:41:12.581Z,86.43
2023-03-25T07:43:49.721Z,85.58
2023-03-25T07:46:26.764Z,85.63
2023-03-25T07:48:57.746Z,85.33
2023-03-25T07:51:39.699Z,85.60
2023-03-25T07:54:10.152Z,84.43
2023-03-25T07:56:47.819Z,84.56
2023-03-25T07:59:18.629Z,84.26
2023-03-25T08:01:55.732Z,84.15
2023-03-25T08:04:26.156Z,83.98
2023-03-25T08:07:05.741Z,83.71
2023-03-25T08:09:36.391Z,82.51
2023-03-25T08:12:13.810Z,82.70
2023-03-25T08:14:50.735Z,82.40
2023-03-25T08:17:21.261Z,83.07
2023-03-25T08:19:57.721Z,82.33
2023-03-25T08:22:37.782Z,82.73
2023-03-25T08:25:10.721Z,82.09
2023-03-25T08:27:47.768Z,83.03
2023-03-25T08:30:19.584Z,82.56
2023-03-25T08:33:00.811Z,82.63
2023-03-25T08:35:31.403Z,81.88
2023-03-25T08:38:11.780Z,82.07
2023-03-25T08:40:42.874Z,82.55
2023-03-25T08:43:20.869Z,81.46
2023-03-25T08:45:51.661Z,81.12
2023-03-25T08:48:29.750Z,80.28
2023-03-25T08:51:07.790Z,79.98
2023-03-25T08:53:40.844Z,79.39
2023-03-25T08:56:19.794Z,79.60
2023-03-25T08:58:57.968Z,78.77
2023-03-25T09:01:31.221Z,78.56
2023-03-25T09:04:07.850Z,78.18
2023-03-25T09:06:47.651Z,78.45
2023-03-25T09:09:27.791Z,78.29
2023-03-25T09:12:04.813Z,78.49
2023-03-25T09:14:35.184Z,77.55
2023-03-25T09:17:12.843Z,77.45
2023-03-25T09:19:43.306Z,77.11
2023-03-25T09:22:19.820Z,76.47
2023-03-25T09:24:59.915Z,76.41
2023-03-25T09:27:36.843Z,76.28
2023-03-25T09:30:09.050Z,75.82
2023-03-25T09:32:45.924Z,76.34
2023-03-25T09:35:16.400Z,74.61
2023-03-25T09:37:53.876Z,75.26
2023-03-25T09:40:27.690Z,75.02
2023-03-25T09:43:26.898Z,73.58
2023-03-25T09:45:59.737Z,74.45
2023-03-25T09:48:42.860Z,74.07
2023-03-25T09:51:29.850Z,74.13
2023-03-25T09:54:07.278Z,73.28
2023-03-25T09:56:50.865Z,73.63
2023-03-25T09:59:31.884Z,73.31
2023-03-25T10:02:11.153Z,74.19
2023-03-25T10:05:04.793Z,72.38
2023-03-25T10:07:52.565Z,70.72
2023-03-25T10:10:39.916Z,72.13
2023-03-25T10:13:23.345Z,70.76
2023-03-25T10:16:08.894Z,69.91
2023-03-25T10:19:05.282Z,69.37
2023-03-25T10:21:50.877Z,68.90
2023-03-25T10:24:24.514Z,69.21
2023-03-25T10:27:09.869Z,69.54
2023-03-25T10:29:57.822Z,68.73
2023-03-25T10:32:37.353Z,66.23
2023-03-25T10:35:19.906Z,66.78
2023-03-25T10:37:53.130Z,67.72
2023-03-25T10:40:35.873Z,67.19
2023-03-25T10:43:21.636Z,66.77
2023-03-25T10:46:05.023Z,66.31
2023-03-25T10:48:36.302Z,66.69
2023-03-25T10:51:18.904Z,66.57
2023-03-25T10:53:53.445Z,66.04
2023-03-25T10:56:33.948Z,64.85
2023-03-25T10:59:14.306Z,65.68
2023-03-25T11:01:56.254Z,66.12
2023-03-25T11:04:38.949Z,65.58
2023-03-25T11:07:23.823Z,64.44
2023-03-25T11:10:00.958Z,64.29
2023-03-25T11:12:42.956Z,62.82
2023-03-25T11:15:24.981Z,62.78
2023-03-25T11:18:05.375Z,63.12
2023-03-25T11:20:48.942Z,62.26
2023-03-25T11:23:34.936Z,62.17
2023-03-25T11:26:16.962Z,62.12
2023-03-25T11:28:48.527Z,62.08
2023-03-25T11:31:28.014Z,61.98
2023-03-25T11:34:13.917Z,61.17
2023-03-25T11:37:03.141Z,59.80
2023-03-25T11:39:38.161Z,60.05
2023-03-25T11:42:36.952Z,59.41
2023-03-25T11:45:10.318Z,59.24
2023-03-25T11:47:49.970Z,58.97
2023-03-25T11:50:29.570Z,60.33
2023-03-25T11:53:10.011Z,59.75
2023-03-25T11:55:55.982Z,58.64
2023-03-25T11:58:33.435Z,58.14
2023-03-25T12:01:12.990Z,58.90
2023-03-25T12:03:43.314Z,57.97
2023-03-25T12:06:29.086Z,57.75
2023-03-25T12:09:09.960Z,58.15
2023-03-25T12:11:48.455Z,56.16
2023-03-25T12:14:45.045Z,56.45
2023-03-25T12:17:34.030Z,55.65
2023-03-25T12:20:16.645Z,55.78
2023-03-25T12:23:10.111Z,56.46
2023-03-25T12:25:56.887Z,57.00
2023-03-25T12:29:21.040Z,56.70
2023-03-25T12:32:10.834Z,56.51
2023-03-25T12:35:08.799Z,56.15
2023-03-25T12:38:07.117Z,55.20
2023-03-25T12:40:58.687Z,54.86
2023-03-25T12:43:46.136Z,56.08
2023-03-25T12:46:32.861Z,56.05
2023-03-25T12:49:30.025Z,55.25
2023-03-25T12:52:16.088Z,55.19
2023-03-25T12:55:12.085Z,55.85
2023-03-25T12:58:06.108Z,54.93
2023-03-25T13:00:50.689Z,55.32
2023-03-25T13:03:52.118Z,54.72
2023-03-25T13:06:34.928Z,55.31
2023-03-25T13:09:19.075Z,55.91
2023-03-25T13:11:57.082Z,57.52
2023-03-25T13:14:41.130Z,57.93
2023-03-25T13:17:21.500Z,57.32
2023-03-25T13:20:01.049Z,57.42
2023-03-25T13:22:37.923Z,57.54
2023-03-25T13:25:20.162Z,57.51
2023-03-25T13:27:54.910Z,57.15
2023-03-25T13:30:40.096Z,57.43
2023-03-25T13:33:19.247Z,57.17
2023-03-25T13:36:03.265Z,57.26
2023-03-25T13:38:44.124Z,57.46
2023-03-25T13:41:20.360Z,57.87
2023-03-25T13:44:10.189Z,59.35
2023-03-25T13:46:44.779Z,61.39
2023-03-25T13:49:28.423Z,62.39
2023-03-25T13:51:58.841Z,64.46
2023-03-25T13:54:44.225Z,66.85
2023-03-25T13:58:12.075Z,70.59
